»·PEaware :: QXE2364 KSEA-KALW

QXE2364 :: KSEA-KALW

FLIGHT INFORMATION

Flight Status: Arrived
Operator:
Horizon Air
More flights by this operator :: More flights under this callsign
Pilot: Adlai G. (28854)
Aircraft: DEHAVILLAND DASH 8 400
(DH8D)
More flights by this aircraft type
Origin: KSEA Seattle-Tacoma Intl
United States
Destination: KALW Walla Walla Regl
United States
More flights between these airports :: More routes between these airports
Route: +SEA7 V2 ELN V187 PSC V520 ALW
File this flight plan on PilotEdge
Remarks: Continues as 2364 ALW-PUW
Altitude:
(Current/Filed)
19,000ft
Speed:
(Current/Filed)
366kts
Departed: 17-May-20 02:20 PM
Arrived: 17-May-20 03:06 PM
Distance/Time
Traveled:
184nm/0:46
Distance/Time
To Go:
Arrived

Flight Plot

Page will automatically refresh every two minutes.

Flight plan parsing failed; only flown route is shown


Map Options




Map Legend


Flown Route
Filed Route
Departure Airport
Arrival Airport
Navaid (VOR, NDB)
Fix

Horizontal Profiles

Position Reports

Time Latitude Longitude Heading Altitude Ground
Speed
17-May-20 13:23 47.445411 -122.304568 50 440ft 0kts
17-May-20 13:24 47.445411 -122.304568 50 440ft 0kts
17-May-20 13:25 47.445411 -122.304568 50 440ft 0kts
17-May-20 13:26 47.445411 -122.304568 50 440ft 0kts
17-May-20 13:27 47.445411 -122.304568 50 440ft 0kts
17-May-20 13:28 47.445411 -122.304568 50 440ft 0kts
17-May-20 13:29 47.445411 -122.304568 50 440ft 0kts
17-May-20 13:30 47.445411 -122.304568 50 440ft 0kts
17-May-20 13:31 47.445411 -122.304568 50 440ft 0kts
17-May-20 13:32 47.445411 -122.304568 50 440ft 0kts
17-May-20 13:33 47.445411 -122.304568 50 440ft 0kts
17-May-20 13:34 47.445411 -122.304568 50 440ft 0kts
17-May-20 13:35 47.445411 -122.304568 50 440ft 0kts
17-May-20 13:36 47.445411 -122.304568 50 440ft 0kts
17-May-20 13:37 47.445411 -122.304568 50 440ft 0kts
17-May-20 13:38 47.445411 -122.304568 50 440ft 0kts
17-May-20 13:39 47.445411 -122.304568 50 440ft 0kts
17-May-20 13:40 47.445411 -122.304568 50 440ft 0kts
17-May-20 13:41 47.445411 -122.304568 50 440ft 0kts
17-May-20 13:42 47.445411 -122.304568 50 440ft 0kts
17-May-20 13:43 47.445411 -122.304568 50 440ft 0kts
17-May-20 13:44 47.445411 -122.304568 50 440ft 0kts
17-May-20 13:45 47.445411 -122.304568 50 440ft 0kts
17-May-20 13:46 47.445411 -122.304568 50 440ft 0kts
17-May-20 13:47 47.445411 -122.304568 50 440ft 0kts
17-May-20 13:48 47.445411 -122.304568 50 440ft 0kts
17-May-20 13:49 47.445411 -122.304568 50 440ft 0kts
17-May-20 13:50 47.445411 -122.304568 50 440ft 0kts
17-May-20 13:51 47.445411 -122.304568 50 440ft 0kts
17-May-20 13:52 47.445411 -122.304568 50 440ft 0kts
17-May-20 13:53 47.445411 -122.304568 50 440ft 0kts
17-May-20 13:54 47.445411 -122.304568 50 440ft 0kts
17-May-20 13:55 47.445411 -122.304568 50 440ft 0kts
17-May-20 13:56 47.445411 -122.304568 50 440ft 0kts
17-May-20 13:57 47.445411 -122.304568 50 440ft 0kts
17-May-20 13:58 47.445411 -122.304568 50 440ft 0kts
17-May-20 13:59 47.445411 -122.304568 50 440ft 0kts
17-May-20 14:00 47.445411 -122.304568 50 440ft 0kts
17-May-20 14:01 47.445411 -122.304568 50 440ft 0kts
17-May-20 14:02 47.445411 -122.304568 50 440ft 0kts
17-May-20 14:03 47.445411 -122.304568 50 440ft 0kts
17-May-20 14:04 47.445411 -122.304568 50 440ft 0kts
17-May-20 14:05 47.445411 -122.304568 50 440ft 0kts
17-May-20 14:06 47.445411 -122.304568 50 440ft 0kts
17-May-20 14:07 47.445411 -122.304568 50 440ft 0kts
17-May-20 14:08 47.445411 -122.304568 50 440ft 0kts
17-May-20 14:09 47.445341 -122.304692 47 440ft 2kts
17-May-20 14:10 47.445000 -122.304707 269 440ft 0kts
17-May-20 14:11 47.445001 -122.304707 269 440ft 0kts
17-May-20 14:12 47.445001 -122.304707 269 440ft 0kts
17-May-20 14:13 47.445001 -122.304707 269 440ft 0kts
17-May-20 14:14 47.445078 -122.305552 318 440ft 5kts
17-May-20 14:15 47.444007 -122.306304 179 440ft 13kts
17-May-20 14:16 47.439900 -122.306361 179 440ft 14kts
17-May-20 14:17 47.435784 -122.306254 159 440ft 17kts
17-May-20 14:18 47.431495 -122.307149 268 440ft 8kts
17-May-20 14:19 47.443219 -122.307865 0 500ft 148kts
17-May-20 14:20 47.490290 -122.302848 7 3427ft 195kts
17-May-20 14:21 47.550253 -122.300568 16 6437ft 229kts
17-May-20 14:22 47.561264 -122.218917 128 8777ft 243kts
17-May-20 14:23 47.522317 -122.133112 123 10845ft 255kts
17-May-20 14:24 47.485921 -122.044108 123 12874ft 256kts
17-May-20 14:25 47.448824 -121.952778 124 14521ft 263kts
17-May-20 14:26 47.411138 -121.860043 124 16298ft 259kts
17-May-20 14:27 47.373846 -121.768182 126 17804ft 262kts
17-May-20 14:28 47.335734 -121.675261 128 18773ft 279kts
17-May-20 14:29 47.291754 -121.572021 127 18821ft 313kts
17-May-20 14:30 47.249101 -121.455479 113 18820ft 337kts
17-May-20 14:31 47.220477 -121.322024 112 18811ft 341kts
17-May-20 14:32 47.191088 -121.189736 112 18812ft 340kts
17-May-20 14:33 47.161127 -121.056942 112 18807ft 345kts
17-May-20 14:34 47.130797 -120.922616 112 18807ft 347kts
17-May-20 14:35 47.100210 -120.788078 112 18801ft 347kts
17-May-20 14:36 47.069538 -120.654202 113 18799ft 346kts
17-May-20 14:38 47.038696 -120.520323 113 18798ft 346kts
17-May-20 14:39 47.008734 -120.386682 111 18798ft 346kts
17-May-20 14:40 46.980918 -120.251459 111 18798ft 346kts
17-May-20 14:41 46.952351 -120.116611 111 18797ft 347kts
17-May-20 14:42 46.923604 -119.981683 112 18796ft 347kts
17-May-20 14:43 46.885820 -119.854618 138 18796ft 335kts
17-May-20 14:44 46.814958 -119.767727 144 18795ft 332kts
17-May-20 14:45 46.743474 -119.681358 144 18794ft 333kts
17-May-20 14:46 46.671990 -119.595379 144 18795ft 333kts
17-May-20 14:47 46.600618 -119.509625 144 18795ft 334kts
17-May-20 14:48 46.529958 -119.425161 144 18345ft 323kts
17-May-20 14:49 46.463272 -119.338067 124 17839ft 332kts
17-May-20 14:50 46.443926 -119.203527 103 17347ft 345kts
17-May-20 14:51 46.428223 -119.066800 103 16835ft 335kts
17-May-20 14:52 46.412530 -118.931447 103 15246ft 343kts
17-May-20 14:53 46.396570 -118.794697 103 13449ft 343kts
17-May-20 14:54 46.380821 -118.661118 103 11671ft 329kts
17-May-20 14:54 46.367967 -118.555115 102 10253ft 302kts
17-May-20 14:55 46.354061 -118.440739 102 8707ft 275kts
17-May-20 14:57 46.339784 -118.319115 100 7093ft 246kts
17-May-20 14:57 46.330683 -118.239997 102 6054ft 236kts
17-May-20 14:58 46.314556 -118.152557 126 4888ft 217kts
17-May-20 15:00 46.264764 -118.083812 178 4461ft 213kts
17-May-20 15:00 46.229428 -118.124587 229 3967ft 199kts
17-May-20 15:01 46.192812 -118.176879 219 3444ft 163kts
17-May-20 15:02 46.161413 -118.211651 216 2680ft 129kts
17-May-20 15:03 46.134626 -118.239637 215 2065ft 117kts
17-May-20 15:04 46.107840 -118.267908 215 1415ft 115kts
17-May-20 15:05 46.087892 -118.288985 215 1198ft 20kts
17-May-20 15:06 46.088240 -118.286239 36 1198ft 13kts
17-May-20 15:07 46.088214 -118.284801 216 1198ft 0kts
17-May-20 15:08 46.088214 -118.284801 216 1198ft 0kts
17-May-20 15:09 46.088214 -118.284801 216 1198ft 0kts
17-May-20 15:10 46.088214 -118.284801 216 1198ft 0kts
17-May-20 15:11 46.088214 -118.284801 216 1198ft 0kts
17-May-20 15:12 46.088214 -118.284801 216 1198ft 0kts
17-May-20 15:13 46.088214 -118.284801 216 1198ft 0kts
17-May-20 15:14 46.088214 -118.284801 216 1198ft 0kts

Navigation Log

Ident Type
Flight plan parsing failed, navigation log unavailable